Time;durP1;ratioP1;P1;durP2;ratioP2;P2;SDS_P1;SDS_P2;PMS_P1;PMS_P2;Temp;Humidity;BMP_temperature;BMP_pressure;BME280_temperature;BME280_humidity;BME280_pressure;Samples;Min_cycle;Max_cycle;Signal;HPM_P1;HPM_P2
2024/04/25 07:09:01;;;;;;;6.22;5.32;;;;;;;;;;6073408;22;20952;-81
2024/04/25 07:11:27;;;;;;;6.55;5.25;;;;;;;;;;5279722;27;20073;-86
2024/04/25 07:13:52;;;;;;;5.85;5.10;;;;;;;;;;5280219;27;20002;-84
2024/04/25 07:16:18;;;;;;;6.85;4.78;;;;;;;;;;5247635;27;20468;-81
2024/04/25 07:18:43;;;;;;;5.63;4.72;;;;;;;;;;5277819;27;20002;-84
2024/04/25 07:21:09;;;;;;;7.28;4.85;;;;;;;;;;5279396;27;20002;-83
2024/04/25 07:23:34;;;;;;;5.15;4.65;;;;;;;;;;5279221;27;20002;-81
2024/04/25 07:25:59;;;;;;;5.30;4.60;;;;;;;;;;5278959;27;20002;-80
2024/04/25 07:28:25;;;;;;;5.07;4.40;;;;;;;;;;5279207;27;20538;-82
2024/04/25 07:30:50;;;;;;;5.53;4.90;;;;;;;;;;5279037;27;19995;-81
2024/04/25 07:33:16;;;;;;;5.20;4.70;;;;;;;;;;5278902;27;20013;-79
2024/04/25 07:35:42;;;;;;;5.35;4.65;;;;;;;;;;5279000;27;19994;-80
2024/04/25 07:38:07;;;;;;;5.45;4.90;;;;;;;;;;5278757;27;19995;-84
2024/04/25 07:40:36;;;;;;;5.15;4.57;;;;;;;;;;5277207;27;20492;-83
2024/04/25 07:43:04;;;;;;;5.63;4.65;;;;;;;;;;5278934;27;20006;-83
2024/04/25 07:45:29;;;;;;;5.10;4.60;;;;;;;;;;5278752;27;20002;-83
2024/04/25 07:47:54;;;;;;;6.93;5.00;;;;;;;;;;5279055;27;20002;-82
2024/04/25 07:50:20;;;;;;;6.20;4.72;;;;;;;;;;5279050;27;20002;-81
2024/04/25 07:52:45;;;;;;;5.57;4.60;;;;;;;;;;5279076;27;20049;-85
2024/04/25 07:55:10;;;;;;;5.47;4.75;;;;;;;;;;5249037;27;20337;-82
2024/04/25 07:57:36;;;;;;;5.00;4.50;;;;;;;;;;5248971;27;20472;-82
2024/04/25 08:00:01;;;;;;;5.18;4.53;;;;;;;;;;5248850;27;20002;-82
2024/04/25 08:02:27;;;;;;;5.00;4.50;;;;;;;;;;5278774;27;20464;-81
2024/04/25 08:04:54;;;;;;;5.72;4.57;;;;;;;;;;5278745;27;20002;-81
2024/04/25 08:07:20;;;;;;;5.35;4.13;;;;;;;;;;5278858;27;20164;-83
2024/04/25 08:09:45;;;;;;;4.95;4.22;;;;;;;;;;5278735;27;20002;-81
2024/04/25 08:12:11;;;;;;;4.10;3.70;;;;;;;;;;5278636;27;20354;-81
2024/04/25 08:14:38;;;;;;;5.00;3.58;;;;;;;;;;5278483;27;20476;-82
2024/04/25 08:17:03;;;;;;;4.63;4.10;;;;;;;;;;5278444;27;20002;-81
2024/04/25 08:19:30;;;;;;;4.40;3.75;;;;;;;;;;5278550;27;20076;-81
2024/04/25 08:21:56;;;;;;;3.95;3.55;;;;;;;;;;5278475;27;20014;-81
2024/04/25 08:24:24;;;;;;;4.03;3.63;;;;;;;;;;5248608;27;20080;-81
2024/04/25 08:26:49;;;;;;;4.95;3.17;;;;;;;;;;5248145;27;20030;-81
2024/04/25 08:29:15;;;;;;;3.80;3.38;;;;;;;;;;5249317;27;20472;-81
2024/04/25 08:31:41;;;;;;;4.57;3.90;;;;;;;;;;5251592;27;20050;-80
2024/04/25 08:34:06;;;;;;;5.35;4.30;;;;;;;;;;5281554;27;20392;-82
2024/04/25 08:36:32;;;;;;;5.57;5.00;;;;;;;;;;5281551;27;20006;-81
2024/04/25 10:03:28;;;;;;;;;;;;;;;;;;5183516;27;19972;-81
2024/04/25 10:05:53;;;;;;;;;;;;;;;;;;5214182;27;19928;-81
2024/04/25 10:08:19;;;;;;;;;;;;;;;;;;5212301;27;19928;-83
2024/04/25 10:10:44;;;;;;;;;;;;;;;;;;5214039;27;19936;-81
2024/04/25 10:13:15;;;;;;;;;;;;;;;;;;5214131;27;19928;-84
2024/04/25 10:15:41;;;;;;;;;;;;;;;;;;5210029;27;20422;-82
2024/04/25 10:18:09;;;;;;;;;;;;;;;;;;5213746;27;19928;-84
2024/04/25 10:20:34;;;;;;;;;;;;;;;;;;5213661;27;19928;-83
2024/04/25 10:23:00;;;;;;;;;;;;;;;;;;5212116;27;19939;-85
2024/04/25 10:25:26;;;;;;;;;;;;;;;;;;5213737;27;19936;-83
2024/04/25 10:27:58;;;;;;;;;;;;;;;;;;5211672;27;20342;-83
2024/04/25 10:30:24;;;;;;;;;;;;;;;;;;5213558;27;19928;-83
2024/04/25 10:32:49;;;;;;;;;;;;;;;;;;5211778;27;20003;-82
2024/04/25 10:35:14;;;;;;;;;;;;;;;;;;5213554;27;19928;-82
2024/04/25 10:37:40;;;;;;;;;;;;;;;;;;5213561;27;19927;-82
2024/04/25 10:40:12;;;;;;;;;;;;;;;;;;5213370;27;20390;-82
2024/04/25 10:42:37;;;;;;;;;;;;;;;;;;5213529;27;19928;-83
2024/04/25 10:45:02;;;;;;;;;;;;;;;;;;5213594;27;19928;-80
2024/04/25 10:47:28;;;;;;;;;;;;;;;;;;5213547;27;19928;-84
2024/04/25 10:49:54;;;;;;;;;;;;;;;;;;5213158;27;19934;-84
2024/04/25 10:52:20;;;;;;;;;;;;;;;;;;5213544;27;19928;-84
2024/04/25 10:54:45;;;;;;;;;;;;;;;;;;5213491;27;19928;-86
2024/04/25 10:57:14;;;;;;;;;;;;;;;;;;5211529;27;19934;-84
2024/04/25 10:59:39;;;;;;;;;;;;;;;;;;5211472;27;19935;-86
2024/04/25 11:02:05;;;;;;;;;;;;;;;;;;5219285;27;19927;-82
2024/04/25 11:04:35;;;;;;;6.25;5.57;;;;;;;;;;5246333;27;19998;-86
2024/04/25 11:07:01;;;;;;;6.63;5.72;;;;;;;;;;5245948;27;19999;-88
2024/04/25 11:09:27;;;;;;;6.22;5.63;;;;;;;;;;5245791;27;20039;-85
2024/04/25 11:11:53;;;;;;;7.30;6.05;;;;;;;;;;5245639;27;20003;-89
2024/04/25 11:14:18;;;;;;;6.32;5.45;;;;;;;;;;5246040;27;20032;-84
2024/04/25 11:16:44;;;;;;;5.45;4.95;;;;;;;;;;5245796;27;20003;-87
2024/04/25 11:19:10;;;;;;;5.93;5.32;;;;;;;;;;5216223;27;20003;-85
2024/04/25 11:21:36;;;;;;;6.13;5.53;;;;;;;;;;5246141;27;20358;-87
2024/04/25 11:24:02;;;;;;;5.82;5.00;;;;;;;;;;5245587;27;19999;-85
2024/04/25 11:26:28;;;;;;;6.63;5.50;;;;;;;;;;5246278;27;20086;-88
2024/04/25 11:28:54;;;;;;;5.70;5.20;;;;;;;;;;5245993;27;20003;-87
2024/04/25 11:31:20;;;;;;;7.80;5.57;;;;;;;;;;5245930;27;20338;-88
2024/04/25 11:33:46;;;;;;;;;;;;;;;;;;5245838;27;20011;-88
2024/04/25 11:36:20;;;;;;;;;;;;;;;;;;5246461;27;20010;-88
2024/04/25 11:38:45;;;;;;;;;;;;;;;;;;5246245;27;19935;-88
2024/04/25 11:41:10;;;;;;;;;;;;;;;;;;5246595;27;19932;-89
2024/04/25 11:43:38;;;;;;;;;;;;;;;;;;5217447;27;19932;-87
2024/04/25 11:46:03;;;;;;;;;;;;;;;;;;5217053;27;19939;-84
2024/04/25 11:48:29;;;;;;;;;;;;;;;;;;5246502;27;20002;-87
2024/04/25 11:50:54;;;;;;;;;;;;;;;;;;5216958;27;19939;-89
2024/04/25 11:53:20;;;;;;;;;;;;;;;;;;5217088;27;19944;-86
2024/04/25 11:55:45;;;;;;;;;;;;;;;;;;5246290;27;19939;-87
2024/04/25 11:58:11;;;;;;;;;;;;;;;;;;5216675;27;20358;-87
2024/04/25 12:00:37;;;;;;;;;;;;;;;;;;5246216;27;19938;-87
2024/04/25 12:03:02;;;;;;;;;;;;;;;;;;5246292;27;19935;-90
2024/04/25 12:05:29;;;;;;;;;;;;;;;;;;5244218;27;20007;-90
2024/04/25 12:07:59;;;;;;;4.97;4.55;;;;;;;;;;5216089;27;19932;-86
2024/04/25 12:10:24;;;;;;;5.10;4.70;;;;;;;;;;5245034;27;20003;-85
2024/04/25 12:12:49;;;;;;;5.47;4.57;;;;;;;;;;5244942;27;20003;-85
2024/04/25 12:15:15;;;;;;;5.00;4.50;;;;;;;;;;5215775;27;20013;-86
2024/04/25 12:17:40;;;;;;;4.53;4.13;;;;;;;;;;5215476;27;20003;-86
2024/04/25 12:20:07;;;;;;;4.57;4.15;;;;;;;;;;5244996;27;20003;-87
2024/04/25 12:22:33;;;;;;;4.80;4.40;;;;;;;;;;5244930;27;20007;-85
2024/04/25 12:24:58;;;;;;;7.95;4.45;;;;;;;;;;5244808;27;20137;-83
2024/04/25 12:27:23;;;;;;;5.93;4.35;;;;;;;;;;5244631;27;20014;-84
2024/04/25 12:29:49;;;;;;;5.78;5.18;;;;;;;;;;5244814;27;20003;-86
2024/04/25 12:32:14;;;;;;;5.30;4.80;;;;;;;;;;5244530;27;20416;-86
2024/04/25 12:34:40;;;;;;;;;;;;;;;;;;5215720;27;20326;-89
2024/04/25 12:37:05;;;;;;;;;;;;;;;;;;5244922;27;19935;-84
2024/04/25 12:39:31;;;;;;;;;;;;;;;;;;5244769;27;19959;-83
2024/04/25 12:41:56;;;;;;;;;;;;;;;;;;5245138;27;20255;-86
2024/04/25 12:44:21;;;;;;;;;;;;;;;;;;5245109;27;19939;-85
2024/04/25 12:46:47;;;;;;;;;;;;;;;;;;5245063;27;20252;-83
2024/04/25 12:49:27;;;;;;;;;;;;;;;;;;5244846;27;19936;-85
2024/04/25 12:51:53;;;;;;;;;;;;;;;;;;5245062;27;20345;-82
2024/04/25 12:54:20;;;;;;;;;;;;;;;;;;5215505;27;19977;-83
2024/04/25 12:56:45;;;;;;;;;;;;;;;;;;5215135;27;20243;-83
2024/04/25 12:59:10;;;;;;;;;;;;;;;;;;5244788;27;19939;-83
2024/04/25 13:01:36;;;;;;;;;;;;;;;;;;5244674;27;20002;-84
2024/04/25 13:04:01;;;;;;;;;;;;;;;;;;5244679;27;19939;-81
2024/04/25 13:06:26;;;;;;;;;;;;;;;;;;5245550;27;19940;-81
2024/04/25 13:08:51;;;;;;;;;;;;;;;;;;5244675;27;20359;-82
2024/04/25 13:11:18;;;;;;;;;;;;;;;;;;5244583;27;20264;-82
2024/04/25 13:13:44;;;;;;;;;;;;;;;;;;5209528;27;20267;-88
2024/04/25 13:16:09;;;;;;;;;;;;;;;;;;5212055;27;19932;-84
2024/04/25 13:18:34;;;;;;;;;;;;;;;;;;5239678;27;19936;-85
2024/04/25 13:21:00;;;;;;;;;;;;;;;;;;5247797;27;20284;-82
2024/04/25 13:23:25;;;;;;;;;;;;;;;;;;5248016;27;19938;-83
2024/04/25 15:40:14;;;;;;;;;;;;;;;;;;5242851;27;19931;-82
2024/04/25 15:42:39;;;;;;;;;;;;;;;;;;5214533;27;19939;-82
2024/04/25 15:45:05;;;;;;;;;;;;;;;;;;5245843;27;19927;-83
2024/04/25 15:47:30;;;;;;;;;;;;;;;;;;5216273;27;19927;-83
2024/04/25 15:49:55;;;;;;;;;;;;;;;;;;5245977;27;19935;-82
2024/04/25 15:52:21;;;;;;;;;;;;;;;;;;5245909;27;19999;-83
2024/04/25 15:54:48;;;;;;;;;;;;;;;;;;5245861;27;20384;-82
2024/04/25 15:57:13;;;;;;;;;;;;;;;;;;5216721;27;19928;-81
2024/04/25 15:59:41;;;;;;;;;;;;;;;;;;5259723;27;19934;-86
2024/04/25 16:02:06;;;;;;;;;;;;;;;;;;5279530;27;19937;-82
2024/04/25 16:04:32;;;;;;;;;;;;;;;;;;5249579;27;20235;-81
2024/04/25 16:06:57;;;;;;;;;;;;;;;;;;5249510;27;19927;-81
2024/04/25 16:09:24;;;;;;;;;;;;;;;;;;5279475;27;19970;-83
2024/04/25 16:11:50;;;;;;;;;;;;;;;;;;5279529;27;19935;-83
2024/04/25 16:14:17;;;;;;;;;;;;;;;;;;5279572;27;19935;-85
2024/04/25 16:16:42;;;;;;;;;;;;;;;;;;5227550;27;20266;-81
2024/04/25 16:19:07;;;;;;;;;;;;;;;;;;5279306;27;19927;-82
2024/04/25 16:21:33;;;;;;;;;;;;;;;;;;5279339;27;20314;-80
2024/04/25 16:23:58;;;;;;;;;;;;;;;;;;5279603;27;19927;-81
2024/04/25 16:26:23;;;;;;;;;;;;;;;;;;5279296;27;19994;-81
2024/04/25 16:28:49;;;;;;;;;;;;;;;;;;5279553;27;19934;-80
2024/04/25 16:31:15;;;;;;;;;;;;;;;;;;5279639;27;20312;-81
2024/04/25 16:33:40;;;;;;;;;;;;;;;;;;5279234;27;19939;-81
2024/04/25 16:36:11;;;;;;;;;;;;;;;;;;5280838;27;19927;-81
2024/04/25 16:38:37;;;;;;;;;;;;;;;;;;5279992;27;19934;-81
2024/04/25 16:41:02;;;;;;;;;;;;;;;;;;5279819;27;19927;-80
2024/04/25 16:43:28;;;;;;;;;;;;;;;;;;5278624;27;19939;-83
2024/04/25 16:45:53;;;;;;;;;;;;;;;;;;5278679;27;19950;-82
2024/04/25 16:48:19;;;;;;;;;;;;;;;;;;5248950;27;19949;-82
2024/04/25 16:50:44;;;;;;;;;;;;;;;;;;5257181;27;20385;-81
2024/04/25 16:53:09;;;;;;;;;;;;;;;;;;5248427;27;19970;-81
2024/04/25 16:55:35;;;;;;;;;;;;;;;;;;5219071;27;19927;-81
2024/04/25 16:58:01;;;;;;;;;;;;;;;;;;5248160;27;19998;-82
2024/04/25 17:00:27;;;;;;;;;;;;;;;;;;5248139;27;19927;-80
2024/04/25 17:02:52;;;;;;;;;;;;;;;;;;5248104;27;20434;-81
2024/04/25 17:05:18;;;;;;;;;;;;;;;;;;5248166;27;19927;-80
2024/04/25 17:07:44;;;;;;;;;;;;;;;;;;5248071;27;19928;-81
2024/04/25 17:10:09;;;;;;;10.82;6.45;;;;;;;;;;5247536;27;19935;-82
2024/04/25 17:12:34;;;;;;;3.60;3.30;;;;;;;;;;5247264;27;19999;-81
2024/04/25 17:15:00;;;;;;;3.47;2.78;;;;;;;;;;5247183;27;20043;-81
2024/04/25 17:17:25;;;;;;;2.47;2.28;;;;;;;;;;5247375;27;20141;-81
2024/04/25 17:19:51;;;;;;;2.30;2.10;;;;;;;;;;5247216;27;20003;-80
2024/04/25 17:22:16;;;;;;;2.83;2.50;;;;;;;;;;5217935;27;20482;-80
2024/04/25 17:24:42;;;;;;;3.20;2.90;;;;;;;;;;5247373;27;20435;-81
2024/04/25 17:27:08;;;;;;;2.88;2.33;;;;;;;;;;5247264;27;20009;-80
2024/04/25 17:29:35;;;;;;;2.40;2.20;;;;;;;;;;5247139;27;20003;-81
2024/04/25 17:32:01;;;;;;;3.08;2.55;;;;;;;;;;5247468;27;19999;-81
2024/04/25 17:34:27;;;;;;;11.23;7.57;;;;;;;;;;5217702;27;20013;-85
2024/04/25 17:36:52;;;;;;;10.73;6.78;;;;;;;;;;5217697;27;19999;-79
2024/04/25 17:39:17;;;;;;;;;;;;;;;;;;5247751;27;20003;-80
2024/04/25 17:41:43;;;;;;;;;;;;;;;;;;5247854;27;19927;-79
2024/04/25 17:44:08;;;;;;;;;;;;;;;;;;5218138;27;20362;-80
2024/04/25 17:46:34;;;;;;;;;;;;;;;;;;5247440;27;19935;-79
2024/04/25 17:48:59;;;;;;;;;;;;;;;;;;5247622;27;19928;-79
2024/04/25 17:51:30;;;;;;;;;;;;;;;;;;5247580;27;20008;-80
2024/04/25 17:53:55;;;;;;;;;;;;;;;;;;5247436;27;19966;-79
2024/04/25 17:56:20;;;;;;;;;;;;;;;;;;5247460;27;19934;-79
2024/04/25 17:58:45;;;;;;;;;;;;;;;;;;5247457;27;20742;-81
2024/04/25 18:01:11;;;;;;;;;;;;;;;;;;5247110;27;19960;-79
2024/04/25 18:03:36;;;;;;;;;;;;;;;;;;5247007;27;19927;-81
2024/04/25 18:06:03;;;;;;;;;;;;;;;;;;5247460;27;20256;-82
2024/04/25 18:08:30;;;;;;;;;;;;;;;;;;5247557;27;19928;-82
2024/04/25 18:10:56;;;;;;;;;;;;;;;;;;5247451;27;19928;-82
2024/04/25 18:13:21;;;;;;;;;;;;;;;;;;5247100;27;19928;-81
2024/04/25 18:15:47;;;;;;;;;;;;;;;;;;5247285;27;19935;-82
2024/04/25 18:18:12;;;;;;;;;;;;;;;;;;5247255;27;20258;-82
2024/04/25 18:20:38;;;;;;;;;;;;;;;;;;5247272;27;19969;-81
2024/04/25 18:23:03;;;;;;;;;;;;;;;;;;5247119;27;19938;-81
2024/04/25 18:25:29;;;;;;;;;;;;;;;;;;5247292;27;20011;-81
2024/04/25 18:27:54;;;;;;;;;;;;;;;;;;5217583;27;19927;-83
2024/04/25 18:30:19;;;;;;;;;;;;;;;;;;5247221;27;19927;-82
2024/04/25 18:32:47;;;;;;;;;;;;;;;;;;5247194;27;19976;-85
2024/04/25 18:35:13;;;;;;;;;;;;;;;;;;5218114;27;19928;-86
2024/04/25 18:37:38;;;;;;;;;;;;;;;;;;5217712;27;20306;-86
2024/04/25 18:40:04;;;;;;;;;;;;;;;;;;5247209;27;19928;-86
2024/04/25 18:42:29;;;;;;;;;;;;;;;;;;5217694;27;19934;-88
2024/04/25 18:44:55;;;;;;;;;;;;;;;;;;5247455;27;20013;-88
2024/04/25 18:47:20;;;;;;;;;;;;;;;;;;5217584;27;19934;-87
2024/04/25 18:49:46;;;;;;;;;;;;;;;;;;5246891;27;19927;-85
2024/04/25 18:52:12;;;;;;;;;;;;;;;;;;5217335;27;19928;-83
2024/04/25 18:54:37;;;;;;;;;;;;;;;;;;5246810;27;19943;-81
2024/04/25 18:57:03;;;;;;;;;;;;;;;;;;5217092;27;19928;-82
2024/04/25 18:59:28;;;;;;;;;;;;;;;;;;5217308;27;19934;-85
2024/04/25 19:01:53;;;;;;;;;;;;;;;;;;5246715;27;19934;-83
2024/04/25 19:04:22;;;;;;;;;;;;;;;;;;5234764;27;19927;-82
2024/04/25 19:06:51;;;;;;;;;;;;;;;;;;5250340;27;19934;-84
2024/04/25 19:09:16;;;;;;;;;;;;;;;;;;5250480;27;19934;-82
2024/04/25 19:11:42;;;;;;;;;;;;;;;;;;5280448;27;19927;-82
2024/04/25 19:14:08;;;;;;;;;;;;;;;;;;5242786;27;19931;-82
2024/04/25 19:16:33;;;;;;;;;;;;;;;;;;5246473;27;19928;-81
2024/04/25 19:18:58;;;;;;;;;;;;;;;;;;5246805;27;19934;-81
2024/04/25 19:21:24;;;;;;;;;;;;;;;;;;5263036;27;19927;-82
2024/04/25 19:23:49;;;;;;;;;;;;;;;;;;5258462;27;19928;-81
2024/04/25 19:26:15;;;;;;;;;;;;;;;;;;5246654;27;19927;-81
2024/04/25 19:28:40;;;;;;;;;;;;;;;;;;5246662;27;19928;-82
2024/04/25 19:31:05;;;;;;;;;;;;;;;;;;5246600;27;19928;-82
2024/04/25 19:33:31;;;;;;;;;;;;;;;;;;5246556;27;19934;-82
2024/04/25 19:35:57;;;;;;;;;;;;;;;;;;5246359;27;19998;-82
2024/04/25 19:38:22;;;;;;;;;;;;;;;;;;5216831;27;19928;-82
2024/04/25 19:40:47;;;;;;;;;;;;;;;;;;5246065;27;19927;-82
2024/04/25 19:43:13;;;;;;;;;;;;;;;;;;5216645;27;19939;-82
2024/04/25 19:45:38;;;;;;;;;;;;;;;;;;5246156;27;19927;-82
2024/04/25 19:48:04;;;;;;;;;;;;;;;;;;5246231;27;19927;-81
2024/04/25 19:50:29;;;;;;;;;;;;;;;;;;5246279;27;19934;-81
2024/04/25 19:52:58;;;;;;;;;;;;;;;;;;5246148;27;20374;-81
2024/04/25 19:55:23;;;;;;;;;;;;;;;;;;5246033;27;19939;-82
2024/04/25 19:57:49;;;;;;;;;;;;;;;;;;5216445;27;20330;-82
2024/04/25 20:00:15;;;;;;;;;;;;;;;;;;5246079;27;19927;-82
2024/04/25 20:02:40;;;;;;;;;;;;;;;;;;5216531;27;19928;-82
2024/04/25 20:05:06;;;;;;;;;;;;;;;;;;5245889;27;20373;-82
2024/04/25 20:07:31;;;;;;;;;;;;;;;;;;5246206;27;19971;-82
2024/04/25 20:09:56;;;;;;;;;;;;;;;;;;5245624;27;20382;-82
2024/04/25 20:12:22;;;;;;;;;;;;;;;;;;5245828;27;19928;-82
2024/04/25 20:14:50;;;;;;;;;;;;;;;;;;5216380;27;19936;-83
2024/04/25 20:17:20;;;;;;;;;;;;;;;;;;5245738;27;19978;-82
2024/04/25 20:22:29;;;;;;;;;;;;;;;;;;5245670;27;19938;-82
2024/04/25 20:24:54;;;;;;;;;;;;;;;;;;5246286;27;20330;-82
2024/04/25 20:27:20;;;;;;;;;;;;;;;;;;5248844;27;19934;-82
2024/04/25 20:29:46;;;;;;;;;;;;;;;;;;5248924;27;19927;-82
2024/04/25 20:32:11;;;;;;;;;;;;;;;;;;5248736;27;20259;-82
2024/04/25 20:34:38;;;;;;;;;;;;;;;;;;5248958;27;19935;-82
2024/04/25 20:37:03;;;;;;;;;;;;;;;;;;5248560;27;19928;-82
2024/04/25 20:39:28;;;;;;;;;;;;;;;;;;5219324;27;19935;-83
2024/04/25 20:41:53;;;;;;;;;;;;;;;;;;5219233;27;19934;-82
2024/04/25 20:44:19;;;;;;;;;;;;;;;;;;5248672;27;19927;-83
2024/04/25 20:46:44;;;;;;;;;;;;;;;;;;5248330;27;19927;-83
2024/04/25 20:49:10;;;;;;;;;;;;;;;;;;5248763;27;19938;-82
2024/04/25 20:51:38;;;;;;;;;;;;;;;;;;5248477;27;19928;-82
2024/04/25 20:54:03;;;;;;;;;;;;;;;;;;5248406;27;19934;-82
2024/04/25 20:56:30;;;;;;;;;;;;;;;;;;5248385;27;19928;-82
2024/04/25 20:58:56;;;;;;;;;;;;;;;;;;5248504;27;19935;-83
2024/04/25 21:01:21;;;;;;;;;;;;;;;;;;5248726;27;19932;-82
2024/04/25 21:03:47;;;;;;;;;;;;;;;;;;5219017;27;19999;-82
2024/04/25 21:06:12;;;;;;;;;;;;;;;;;;5248405;27;20689;-82
2024/04/25 21:08:37;;;;;;;;;;;;;;;;;;5248673;27;19934;-83
2024/04/25 21:11:06;;;;;;;;;;;;;;;;;;5248459;27;19934;-83
2024/04/25 21:13:32;;;;;;;;;;;;;;;;;;5248437;27;19935;-82
2024/04/25 21:15:57;;;;;;;;;;;;;;;;;;5248245;27;19934;-82
2024/04/25 21:18:23;;;;;;;;;;;;;;;;;;5248182;27;19928;-82
2024/04/25 21:20:48;;;;;;;;;;;;;;;;;;5218800;27;19936;-82
2024/04/25 21:23:14;;;;;;;;;;;;;;;;;;5248121;27;19999;-82
2024/04/25 21:25:39;;;;;;;;;;;;;;;;;;5218645;27;19928;-82
2024/04/25 21:28:08;;;;;;;;;;;;;;;;;;5248190;27;19971;-82
2024/04/25 21:30:33;;;;;;;;;;;;;;;;;;5248183;27;19928;-82
2024/04/25 21:32:58;;;;;;;;;;;;;;;;;;5247984;27;20286;-82
2024/04/25 21:35:24;;;;;;;;;;;;;;;;;;5248013;27;20358;-82
2024/04/25 21:37:49;;;;;;;;;;;;;;;;;;5217104;27;19935;-82
2024/04/25 21:40:14;;;;;;;;;;;;;;;;;;5247895;27;19935;-82
2024/04/25 21:42:40;;;;;;;;;;;;;;;;;;5247878;27;19938;-82
2024/04/25 21:45:05;;;;;;;;;;;;;;;;;;5248257;27;19931;-83
2024/04/25 21:47:30;;;;;;;;;;;;;;;;;;5247927;27;19936;-83
2024/04/25 21:49:56;;;;;;;;;;;;;;;;;;5247667;27;19936;-82
2024/04/25 21:52:21;;;;;;;;;;;;;;;;;;5248034;27;19935;-82
2024/04/25 21:54:46;;;;;;;;;;;;;;;;;;5247702;27;19927;-83
2024/04/25 21:57:16;;;;;;;;;;;;;;;;;;5247536;27;19935;-82
2024/04/25 21:59:42;;;;;;;;;;;;;;;;;;5247530;27;19928;-82
2024/04/25 22:02:07;;;;;;;;;;;;;;;;;;5247587;27;20014;-82
2024/04/25 22:04:32;;;;;;;;;;;;;;;;;;5247728;27;20348;-82
2024/04/25 22:06:58;;;;;;;;;;;;;;;;;;5218113;27;20362;-82
2024/04/25 22:09:23;;;;;;;;;;;;;;;;;;5247728;27;19935;-83
2024/04/25 22:11:48;;;;;;;;;;;;;;;;;;5247643;27;20258;-83
2024/04/25 22:14:13;;;;;;;;;;;;;;;;;;5247475;27;19935;-83
